Time;durP1;ratioP1;P1;durP2;ratioP2;P2;SDS_P1;SDS_P2;PMS_P1;PMS_P2;Temp;Humidity;BMP_temperature;BMP_pressure;BME280_temperature;BME280_humidity;BME280_pressure;Samples;Min_cycle;Max_cycle;Signal;HPM_P1;HPM_P2
2022/03/27 00:01:31;;;;;;;5.63;5.00;;;19.20;53.80;;;;;;5011403;28;20022;-70
2022/03/27 00:03:57;;;;;;;6.32;5.03;;;19.10;53.80;;;;;;5014559;28;20033;-70
2022/03/27 00:06:23;;;;;;;5.70;5.10;;;19.20;53.80;;;;;;5014194;28;20497;-70
2022/03/27 00:08:48;;;;;;;5.88;5.28;;;19.20;53.80;;;;;;5015441;28;20056;-70
2022/03/27 00:11:27;;;;;;;6.10;4.93;;;19.20;53.80;;;;;;5014348;28;20455;-70
2022/03/27 00:13:59;;;;;;;5.70;4.95;;;19.20;54.80;;;;;;5015426;28;20035;-70
2022/03/27 00:16:24;;;;;;;6.57;5.55;;;19.20;53.80;;;;;;5014141;28;20050;-70
2022/03/27 00:18:51;;;;;;;5.88;5.13;;;19.10;53.80;;;;;;5014107;28;20053;-70
2022/03/27 00:21:17;;;;;;;6.55;5.63;;;19.10;53.80;;;;;;5014043;28;20022;-70
2022/03/27 00:23:43;;;;;;;6.30;5.18;;;19.10;53.90;;;;;;5016223;28;20041;-70
2022/03/27 00:26:09;;;;;;;7.40;6.07;;;19.10;53.80;;;;;;5033846;28;20076;-70
2022/03/27 00:28:35;;;;;;;6.07;5.47;;;19.10;53.80;;;;;;5034781;28;20036;-70
2022/03/27 00:31:01;;;;;;;6.05;5.45;;;19.10;53.80;;;;;;5034259;28;20021;-70
2022/03/27 00:33:28;;;;;;;6.18;5.32;;;19.10;53.80;;;;;;5013751;28;20026;-70
2022/03/27 00:35:54;;;;;;;6.38;5.53;;;19.10;53.80;;;;;;5014012;28;20093;-70
2022/03/27 00:38:20;;;;;;;6.55;5.63;;;19.10;53.80;;;;;;5013649;28;20033;-70
2022/03/27 00:40:46;;;;;;;7.50;5.95;;;19.00;53.80;;;;;;5013835;28;20022;-70
2022/03/27 00:43:11;;;;;;;6.57;5.72;;;19.00;53.80;;;;;;5014479;28;20046;-70
2022/03/27 00:45:37;;;;;;;6.63;5.78;;;19.00;53.80;;;;;;5013881;28;20030;-70
2022/03/27 00:48:03;;;;;;;7.53;5.50;;;19.00;53.80;;;;;;5015131;28;20037;-70
2022/03/27 00:50:30;;;;;;;7.72;6.13;;;19.00;53.80;;;;;;5013485;28;20018;-70
2022/03/27 00:52:57;;;;;;;8.65;6.10;;;19.00;53.80;;;;;;5013452;28;20026;-70
2022/03/27 00:55:22;;;;;;;7.82;5.90;;;19.00;53.80;;;;;;5013405;28;20056;-70
2022/03/27 00:57:48;;;;;;;7.40;5.85;;;19.00;53.80;;;;;;5014650;28;20049;-70
2022/03/27 01:00:34;;;;;;;7.72;6.00;;;19.00;53.80;;;;;;5013375;28;20026;-70
2022/03/27 01:03:00;;;;;;;6.60;5.90;;;19.00;53.80;;;;;;5013488;28;20372;-70
2022/03/27 01:05:25;;;;;;;6.85;5.90;;;19.00;53.80;;;;;;5014753;28;20029;-70
2022/03/27 01:07:51;;;;;;;7.50;6.20;;;19.00;53.80;;;;;;5014496;28;20032;-70
2022/03/27 01:10:22;;;;;;;7.88;6.45;;;19.00;53.80;;;;;;5014361;28;20024;-70
2022/03/27 01:12:48;;;;;;;8.35;6.07;;;19.00;53.80;;;;;;5012784;28;20034;-70
2022/03/27 01:15:24;;;;;;;6.97;6.25;;;18.90;53.90;;;;;;5012978;28;20141;-70
2022/03/27 01:17:49;;;;;;;8.27;6.10;;;19.00;54.80;;;;;;5014256;28;20026;-70
2022/03/27 01:20:21;;;;;;;8.05;6.60;;;18.90;53.90;;;;;;5012937;28;20435;-70
2022/03/27 01:22:47;;;;;;;7.10;6.10;;;18.90;53.80;;;;;;5013008;28;20030;-70
2022/03/27 01:25:13;;;;;;;8.57;6.40;;;18.90;53.90;;;;;;5028529;28;20036;-70
2022/03/27 01:27:38;;;;;;;7.32;6.53;;;18.90;53.90;;;;;;5033618;28;20029;-70
2022/03/27 01:30:04;;;;;;;8.85;7.10;;;18.90;53.80;;;;;;5033630;28;20381;-70
2022/03/27 01:32:30;;;;;;;7.75;6.40;;;18.90;53.90;;;;;;5020706;28;20546;-70
2022/03/27 01:34:56;;;;;;;8.20;6.68;;;18.90;53.80;;;;;;5013926;28;20026;-70
2022/03/27 01:37:22;;;;;;;8.18;6.50;;;18.90;53.80;;;;;;5013968;28;20029;-70
2022/03/27 01:39:47;;;;;;;7.70;6.43;;;18.90;53.80;;;;;;5012578;28;20022;-70
2022/03/27 01:42:13;;;;;;;9.68;6.78;;;18.90;53.80;;;;;;5013219;28;20050;-70
2022/03/27 01:44:39;;;;;;;8.07;6.63;;;18.90;53.80;;;;;;5013918;28;20021;-70
2022/03/27 01:47:05;;;;;;;7.80;6.78;;;18.80;53.80;;;;;;5013720;28;20021;-70
2022/03/27 01:49:30;;;;;;;8.70;7.18;;;18.80;53.70;;;;;;5012410;28;20060;-70
2022/03/27 01:51:56;;;;;;;8.88;6.50;;;18.80;53.80;;;;;;5012476;28;20041;-70
2022/03/27 01:54:22;;;;;;;9.68;7.20;;;18.80;53.80;;;;;;5012358;28;20044;-70
2022/03/27 01:56:48;;;;;;;9.63;7.43;;;18.80;53.80;;;;;;5013208;28;20032;-70
2022/03/27 01:59:14;;;;;;;10.02;7.18;;;18.80;53.80;;;;;;5012525;28;20416;-70
2022/03/27 02:01:39;;;;;;;8.52;7.13;;;18.80;53.80;;;;;;5013405;28;20084;-70
2022/03/27 02:04:06;;;;;;;9.45;6.90;;;18.80;53.80;;;;;;5013371;28;20018;-70
2022/03/27 02:06:32;;;;;;;9.43;7.13;;;18.80;53.80;;;;;;5012265;28;20080;-70
2022/03/27 02:08:59;;;;;;;10.75;7.00;;;18.80;53.80;;;;;;5012168;28;20096;-70
2022/03/27 02:11:24;;;;;;;9.65;7.22;;;18.80;53.80;;;;;;5011786;28;20028;-70
2022/03/27 02:13:51;;;;;;;9.00;6.88;;;18.70;53.70;;;;;;5012201;28;20033;-70
2022/03/27 02:16:17;;;;;;;7.53;6.45;;;18.70;53.70;;;;;;5013128;28;20026;-70
2022/03/27 02:18:42;;;;;;;9.02;7.07;;;18.70;53.70;;;;;;5013256;28;20495;-70
2022/03/27 02:21:08;;;;;;;7.47;6.63;;;18.80;53.80;;;;;;5011718;28;20033;-70
2022/03/27 02:23:34;;;;;;;8.10;7.18;;;18.70;53.80;;;;;;5012899;28;20480;-70
2022/03/27 02:25:59;;;;;;;9.68;7.22;;;18.80;53.80;;;;;;5030757;28;20014;-70
2022/03/27 02:28:25;;;;;;;8.77;6.85;;;18.70;53.70;;;;;;5031516;28;20021;-70
2022/03/27 02:30:52;;;;;;;8.30;6.55;;;18.70;53.70;;;;;;5031527;28;20133;-70
2022/03/27 02:33:18;;;;;;;10.52;7.05;;;18.70;53.70;;;;;;5011991;28;20499;-70
2022/03/27 02:35:43;;;;;;;8.95;6.65;;;18.70;53.70;;;;;;5013016;28;20038;-70
2022/03/27 02:38:10;;;;;;;8.15;6.63;;;18.70;53.70;;;;;;5012787;28;20018;-70
2022/03/27 02:40:36;;;;;;;8.35;6.80;;;18.70;53.80;;;;;;5012436;28;20045;-70
2022/03/27 02:43:02;;;;;;;8.13;6.63;;;18.70;53.80;;;;;;5011396;28;20423;-70
2022/03/27 02:45:28;;;;;;;9.55;7.15;;;18.70;54.80;;;;;;5011567;28;20026;-70
2022/03/27 02:47:57;;;;;;;8.18;6.72;;;18.70;53.70;;;;;;5011794;28;20022;-70
2022/03/27 02:50:22;;;;;;;8.73;6.72;;;18.70;53.70;;;;;;5011535;28;20026;-70
2022/03/27 02:52:48;;;;;;;8.43;6.95;;;18.70;53.80;;;;;;5012941;28;20022;-70
2022/03/27 02:55:14;;;;;;;8.80;7.25;;;18.60;53.80;;;;;;5012451;28;20448;-70
2022/03/27 02:57:39;;;;;;;10.55;7.25;;;18.70;53.80;;;;;;5012558;28;20036;-70
2022/03/27 03:00:06;;;;;;;9.85;7.25;;;18.60;53.70;;;;;;5011552;28;20031;-70
2022/03/27 03:02:33;;;;;;;10.77;7.68;;;18.70;53.80;;;;;;5011316;28;20072;-70
2022/03/27 03:04:58;;;;;;;8.98;6.97;;;18.60;53.70;;;;;;5011351;28;20033;-70
2022/03/27 03:07:24;;;;;;;9.45;7.95;;;18.60;53.80;;;;;;5011419;28;20026;-70
2022/03/27 03:09:50;;;;;;;10.77;7.55;;;18.60;53.70;;;;;;5012484;28;20025;-70
2022/03/27 03:12:16;;;;;;;9.05;7.53;;;18.60;53.70;;;;;;5011381;28;20056;-70
2022/03/27 03:14:42;;;;;;;9.88;7.70;;;18.60;53.70;;;;;;5011189;28;20053;-70
2022/03/27 03:17:08;;;;;;;10.88;7.72;;;18.60;53.70;;;;;;5011422;28;20029;-70
2022/03/27 03:19:34;;;;;;;10.55;7.43;;;18.60;53.70;;;;;;5011195;28;20026;-70
2022/03/27 03:21:59;;;;;;;9.70;7.65;;;18.60;53.80;;;;;;5011066;28;20034;-70
2022/03/27 03:24:26;;;;;;;10.38;7.88;;;18.60;53.80;;;;;;5019053;28;20026;-70
2022/03/27 03:26:53;;;;;;;8.98;7.43;;;18.60;53.90;;;;;;5032028;28;20100;-70
2022/03/27 03:29:19;;;;;;;9.43;7.38;;;18.50;53.70;;;;;;5030913;28;20443;-70
2022/03/27 03:31:45;;;;;;;10.43;7.68;;;18.60;53.80;;;;;;5024050;28;20476;-70
2022/03/27 03:34:11;;;;;;;9.95;7.53;;;18.60;53.70;;;;;;5012334;28;20030;-70
2022/03/27 03:36:36;;;;;;;8.45;7.15;;;18.50;53.70;;;;;;5013124;28;20037;-70
2022/03/27 03:39:02;;;;;;;8.98;7.40;;;18.50;53.70;;;;;;5015937;28;20034;-70
2022/03/27 03:41:27;;;;;;;9.18;7.93;;;18.50;53.70;;;;;;5015918;28;20022;-70
2022/03/27 03:43:53;;;;;;;9.55;7.80;;;18.50;53.80;;;;;;5016019;28;20072;-70
2022/03/27 03:46:19;;;;;;;10.05;7.32;;;18.50;53.70;;;;;;5015887;28;20559;-70
2022/03/27 03:48:45;;;;;;;11.20;7.85;;;18.50;53.70;;;;;;5016043;28;20072;-70
2022/03/27 03:51:10;;;;;;;10.38;7.55;;;18.50;53.70;;;;;;5014699;28;20097;-70
2022/03/27 03:53:36;;;;;;;9.13;7.13;;;18.50;53.70;;;;;;5015529;28;20029;-70
2022/03/27 03:56:01;;;;;;;9.43;7.45;;;18.50;53.70;;;;;;5015872;28;20029;-70
2022/03/27 03:58:27;;;;;;;9.02;6.80;;;18.50;53.70;;;;;;5014706;28;20030;-70
2022/03/27 04:00:53;;;;;;;11.95;8.48;;;18.40;53.70;;;;;;5015579;28;20022;-70
2022/03/27 04:03:18;;;;;;;10.00;7.78;;;18.40;53.60;;;;;;5015666;28;20022;-70
2022/03/27 04:05:44;;;;;;;9.23;7.72;;;18.40;53.60;;;;;;5015465;28;20080;-70
2022/03/27 04:08:09;;;;;;;10.75;7.93;;;18.50;53.70;;;;;;5015500;28;20381;-70
2022/03/27 04:10:35;;;;;;;9.43;7.35;;;18.40;53.80;;;;;;5015534;28;20377;-70
2022/03/27 04:13:01;;;;;;;9.48;7.72;;;18.40;53.70;;;;;;5015528;28;20033;-70
2022/03/27 04:15:26;;;;;;;10.00;7.75;;;18.40;53.80;;;;;;5014386;28;20381;-70
2022/03/27 04:17:52;;;;;;;9.32;7.25;;;18.40;53.70;;;;;;5015540;28;20473;-70
2022/03/27 04:20:18;;;;;;;8.52;6.97;;;18.40;53.70;;;;;;5015043;28;20065;-70
2022/03/27 04:22:44;;;;;;;8.85;7.20;;;18.40;53.70;;;;;;5013865;28;20109;-70
2022/03/27 04:25:11;;;;;;;9.43;7.18;;;18.40;53.70;;;;;;5029546;28;20025;-70
2022/03/27 04:27:37;;;;;;;9.57;7.55;;;18.40;53.70;;;;;;5034848;28;20068;-70
2022/03/27 04:30:09;;;;;;;10.60;7.20;;;18.40;53.80;;;;;;5034019;28;20029;-70
2022/03/27 04:32:35;;;;;;;8.40;7.35;;;18.40;53.70;;;;;;5020233;28;20121;-70
2022/03/27 04:35:01;;;;;;;9.13;7.65;;;18.40;53.70;;;;;;5013533;28;20623;-70
2022/03/27 04:37:27;;;;;;;11.93;7.18;;;18.40;54.70;;;;;;5015035;28;20112;-70
2022/03/27 04:39:54;;;;;;;10.57;7.90;;;18.30;53.70;;;;;;4997583;28;20029;-69
2022/03/27 04:42:20;;;;;;;9.43;7.70;;;18.40;53.70;;;;;;5013578;28;20046;-69
2022/03/27 04:44:46;;;;;;;9.02;6.72;;;18.40;53.70;;;;;;5014847;28;20018;-69
2022/03/27 04:47:11;;;;;;;8.60;6.75;;;18.30;53.60;;;;;;5013864;28;20114;-69
2022/03/27 04:49:37;;;;;;;8.88;7.10;;;18.30;53.70;;;;;;5013648;28;20097;-70
2022/03/27 04:52:03;;;;;;;9.48;6.82;;;18.30;54.70;;;;;;5014996;28;20481;-70
2022/03/27 04:54:31;;;;;;;8.40;7.07;;;18.30;53.60;;;;;;5013423;28;20034;-69
2022/03/27 04:56:56;;;;;;;9.82;7.13;;;18.30;53.60;;;;;;5014590;28;20484;-69
2022/03/27 04:59:23;;;;;;;9.48;6.65;;;18.30;53.60;;;;;;5014586;28;20040;-69
2022/03/27 05:01:49;;;;;;;7.70;6.88;;;18.30;53.70;;;;;;5014585;28;20076;-69
2022/03/27 05:04:14;;;;;;;8.20;6.85;;;18.30;53.60;;;;;;5014347;28;20025;-69
2022/03/27 05:06:40;;;;;;;9.25;6.93;;;18.30;53.60;;;;;;5014406;28;20018;-69
2022/03/27 05:09:06;;;;;;;9.95;7.00;;;18.30;53.70;;;;;;5014540;28;20113;-69
2022/03/27 05:11:31;;;;;;;8.88;6.50;;;18.30;53.60;;;;;;5014513;28;20033;-69
2022/03/27 05:13:57;;;;;;;10.90;6.53;;;18.30;53.70;;;;;;5014302;28;20057;-69
2022/03/27 05:16:23;;;;;;;8.23;6.53;;;18.30;53.70;;;;;;5013097;28;20072;-69
2022/03/27 05:18:48;;;;;;;9.20;6.50;;;18.30;53.60;;;;;;5013835;28;20026;-69
2022/03/27 05:21:15;;;;;;;8.68;6.85;;;18.20;53.60;;;;;;5012847;28;20036;-69
2022/03/27 05:23:41;;;;;;;7.75;6.88;;;18.30;53.70;;;;;;5014956;28;20018;-69
2022/03/27 05:26:07;;;;;;;8.35;7.00;;;18.20;53.70;;;;;;5032630;28;20021;-69
2022/03/27 05:28:34;;;;;;;8.65;6.90;;;18.20;53.60;;;;;;5032743;28;20024;-69
2022/03/27 05:31:01;;;;;;;9.10;6.60;;;18.20;53.60;;;;;;5031826;28;20108;-69
2022/03/27 05:33:26;;;;;;;9.00;6.95;;;18.20;53.60;;;;;;5012601;28;20028;-69
2022/03/27 05:35:53;;;;;;;8.00;6.68;;;18.20;53.60;;;;;;5014026;28;20042;-69
2022/03/27 05:38:19;;;;;;;6.95;6.10;;;18.20;53.60;;;;;;5013804;28;20064;-69
2022/03/27 05:40:45;;;;;;;7.50;6.22;;;18.20;53.60;;;;;;5012786;28;20056;-69
2022/03/27 05:43:11;;;;;;;8.35;6.38;;;18.20;53.60;;;;;;5012398;28;20508;-69
2022/03/27 05:45:36;;;;;;;7.47;6.70;;;18.20;53.60;;;;;;5013704;28;20030;-69
2022/03/27 05:48:03;;;;;;;6.90;6.07;;;18.20;53.60;;;;;;5012345;28;20498;-69
2022/03/27 05:50:28;;;;;;;8.90;6.68;;;18.20;53.60;;;;;;5012547;28;20072;-69
2022/03/27 05:52:54;;;;;;;9.65;6.78;;;18.20;53.60;;;;;;5013508;28;20030;-69
2022/03/27 05:55:23;;;;;;;7.60;6.32;;;18.20;53.60;;;;;;5012387;28;20445;-69
2022/03/27 05:57:49;;;;;;;7.82;6.30;;;18.20;53.60;;;;;;5012321;28;20152;-69
2022/03/27 06:00:21;;;;;;;7.55;6.28;;;18.10;53.60;;;;;;5012189;28;20077;-69
2022/03/27 06:02:50;;;;;;;7.65;5.82;;;18.20;53.60;;;;;;5013059;28;20057;-69
2022/03/27 06:05:18;;;;;;;7.78;6.78;;;18.10;53.60;;;;;;5013563;28;20033;-69
2022/03/27 06:07:44;;;;;;;7.75;6.45;;;18.10;53.60;;;;;;5012124;28;20033;-69
2022/03/27 06:10:10;;;;;;;7.15;5.90;;;18.10;53.60;;;;;;5013356;28;20049;-69
2022/03/27 06:12:36;;;;;;;7.10;5.72;;;18.10;53.60;;;;;;5012286;28;20101;-69
2022/03/27 06:15:01;;;;;;;7.30;5.82;;;18.10;53.60;;;;;;5013173;28;20104;-69
2022/03/27 06:17:27;;;;;;;8.23;6.40;;;18.10;53.60;;;;;;5012901;28;20395;-69
2022/03/27 06:19:53;;;;;;;7.93;5.90;;;18.10;53.60;;;;;;5013024;28;20546;-69
2022/03/27 06:22:18;;;;;;;7.30;5.70;;;18.10;53.60;;;;;;4995286;28;20435;-69
2022/03/27 06:24:44;;;;;;;6.05;4.88;;;18.10;53.60;;;;;;5023776;28;20036;-69
2022/03/27 06:27:10;;;;;;;7.38;5.55;;;18.10;53.70;;;;;;5032827;28;20033;-69
2022/03/27 06:29:35;;;;;;;6.90;6.15;;;18.10;53.80;;;;;;5032719;28;20455;-69
2022/03/27 06:32:01;;;;;;;6.63;5.65;;;18.10;53.60;;;;;;5023360;28;20392;-69
2022/03/27 06:34:29;;;;;;;5.57;4.88;;;18.10;53.60;;;;;;5012984;28;20515;-69
2022/03/27 06:36:55;;;;;;;5.65;5.07;;;18.10;53.60;;;;;;5012875;28;20026;-69
2022/03/27 06:39:21;;;;;;;6.13;5.13;;;18.10;53.60;;;;;;5013031;28;20034;-69
2022/03/27 06:41:47;;;;;;;6.32;4.78;;;18.10;53.60;;;;;;5011405;28;20030;-69
2022/03/27 06:44:13;;;;;;;5.88;4.82;;;18.10;53.60;;;;;;5011415;28;20129;-69
2022/03/27 06:46:39;;;;;;;6.45;5.32;;;18.00;53.50;;;;;;5012708;28;20018;-69
2022/03/27 06:49:05;;;;;;;7.15;5.32;;;18.00;53.50;;;;;;5011492;28;20087;-69
2022/03/27 06:51:31;;;;;;;6.68;5.45;;;18.00;53.50;;;;;;5012821;28;20500;-69
2022/03/27 06:53:56;;;;;;;5.93;5.05;;;18.00;53.60;;;;;;5012545;28;20050;-69
2022/03/27 06:56:22;;;;;;;5.75;5.10;;;18.00;53.60;;;;;;5011539;28;20077;-69
2022/03/27 06:58:48;;;;;;;6.28;5.45;;;18.00;53.60;;;;;;5012605;28;20455;-69
2022/03/27 07:03:58;;;;;;;5.78;5.18;;;18.00;53.50;;;;;;5012729;28;20080;-69
2022/03/27 07:06:23;;;;;;;5.90;5.15;;;18.00;53.60;;;;;;5012404;28;20038;-69
2022/03/27 07:08:49;;;;;;;5.70;4.90;;;18.00;53.50;;;;;;5012584;28;20037;-69
2022/03/27 07:11:15;;;;;;;6.57;5.22;;;18.00;53.60;;;;;;5013116;28;20026;-69
2022/03/27 07:13:41;;;;;;;5.40;4.90;;;18.00;53.50;;;;;;5016695;28;20033;-69
2022/03/27 07:16:07;;;;;;;5.40;4.90;;;18.00;53.60;;;;;;5016192;28;20060;-69
2022/03/27 07:18:33;;;;;;;5.45;4.65;;;18.00;53.60;;;;;;5015467;28;20030;-69
2022/03/27 07:20:59;;;;;;;6.10;4.80;;;18.00;53.60;;;;;;5016530;28;20034;-69
2022/03/27 07:23:25;;;;;;;6.75;4.95;;;18.00;53.60;;;;;;5016453;28;20022;-69
2022/03/27 07:25:52;;;;;;;5.28;4.60;;;18.00;53.60;;;;;;5031808;28;20056;-69
2022/03/27 07:28:18;;;;;;;6.03;5.43;;;18.00;53.60;;;;;;5015071;28;20503;-69
2022/03/27 07:30:45;;;;;;;5.25;4.72;;;18.00;53.60;;;;;;5015910;28;20049;-69
2022/03/27 07:33:12;;;;;;;5.93;4.57;;;18.00;53.60;;;;;;5030070;28;20467;-69
2022/03/27 07:35:38;;;;;;;6.28;4.55;;;17.90;53.50;;;;;;5016202;28;20057;-69
2022/03/27 07:38:04;;;;;;;5.00;4.50;;;18.00;53.60;;;;;;5031419;28;20061;-69
2022/03/27 07:40:30;;;;;;;4.40;4.00;;;17.90;53.50;;;;;;5031709;28;20049;-69
2022/03/27 07:42:56;;;;;;;6.43;4.30;;;17.90;53.60;;;;;;5030883;28;20170;-69
2022/03/27 07:45:23;;;;;;;5.80;4.60;;;17.90;53.50;;;;;;5031275;28;20044;-69
2022/03/27 07:47:49;;;;;;;4.90;3.95;;;17.90;53.50;;;;;;5031308;28;20057;-69
2022/03/27 07:50:16;;;;;;;4.90;4.40;;;17.90;53.50;;;;;;5015817;28;20511;-69
2022/03/27 07:52:42;;;;;;;5.70;4.60;;;17.90;53.50;;;;;;5031080;28;20037;-69
2022/03/27 07:55:08;;;;;;;5.05;4.55;;;17.90;53.50;;;;;;5031010;28;20025;-69
2022/03/27 07:57:34;;;;;;;4.75;4.25;;;17.90;53.50;;;;;;5031165;28;20057;-69
2022/03/27 07:59:59;;;;;;;4.97;4.50;;;17.90;53.60;;;;;;5015580;28;20053;-69
2022/03/27 08:02:25;;;;;;;5.85;4.55;;;17.90;53.60;;;;;;5030904;28;20086;-69
2022/03/27 08:04:51;;;;;;;5.05;4.38;;;17.90;53.50;;;;;;5015612;28;20101;-69
2022/03/27 08:07:17;;;;;;;4.15;3.75;;;17.90;53.60;;;;;;5031074;28;20102;-69
2022/03/27 08:09:42;;;;;;;4.70;4.20;;;17.90;53.50;;;;;;5030875;28;20025;-69
2022/03/27 08:12:09;;;;;;;4.60;4.20;;;17.90;53.60;;;;;;5015466;28;20500;-69
2022/03/27 08:14:38;;;;;;;4.90;4.18;;;17.90;53.50;;;;;;5030893;28;20039;-69
2022/03/27 08:17:04;;;;;;;4.22;3.85;;;17.90;53.50;;;;;;5030632;28;20026;-69
2022/03/27 08:19:30;;;;;;;5.47;4.60;;;17.90;53.60;;;;;;5015448;28;20024;-69
2022/03/27 08:21:55;;;;;;;4.88;4.35;;;17.90;53.60;;;;;;5015328;28;20108;-69
2022/03/27 08:24:22;;;;;;;4.47;4.05;;;17.90;53.60;;;;;;5032251;28;20014;-69
2022/03/27 08:26:56;;;;;;;4.97;4.18;;;17.90;53.50;;;;;;5033678;28;20026;-69
2022/03/27 08:29:26;;;;;;;4.90;3.90;;;17.80;53.50;;;;;;5034008;28;20021;-69
2022/03/27 08:31:54;;;;;;;4.47;3.90;;;17.90;53.60;;;;;;5026105;28;20396;-69
2022/03/27 08:34:23;;;;;;;4.22;3.83;;;17.80;53.50;;;;;;5015025;28;20053;-69
2022/03/27 08:36:49;;;;;;;4.82;4.30;;;17.80;53.50;;;;;;5013910;28;20034;-69
2022/03/27 08:39:14;;;;;;;4.63;4.22;;;17.80;53.60;;;;;;5015065;28;20443;-69
2022/03/27 08:41:45;;;;;;;5.07;4.60;;;17.80;53.50;;;;;;5013501;28;20026;-69
2022/03/27 08:44:12;;;;;;;4.18;3.78;;;17.80;53.50;;;;;;5013527;28;20070;-69
2022/03/27 08:46:38;;;;;;;4.25;3.85;;;17.80;54.60;;;;;;5013789;28;20384;-69
2022/03/27 08:49:40;;;;;;;4.85;3.85;;;17.80;53.60;;;;;;5013722;28;20018;-69
2022/03/27 08:52:19;;;;;;;5.32;4.00;;;17.90;53.50;;;;;;4992918;28;20081;-69
2022/03/27 08:55:23;;;;;;;4.32;3.90;;;17.90;53.60;;;;;;4993144;28;20089;-69
2022/03/27 08:58:00;;;;;;;5.82;4.45;;;17.80;53.50;;;;;;4976543;28;20063;-69
2022/03/27 09:00:31;;;;;;;4.68;4.13;;;17.80;53.60;;;;;;4977000;28;20058;-69
2022/03/27 09:02:58;;;;;;;4.63;4.22;;;17.80;53.60;;;;;;4992903;28;20038;-69
2022/03/27 09:05:24;;;;;;;3.90;3.55;;;17.80;53.70;;;;;;4976828;28;20018;-69
2022/03/27 09:07:50;;;;;;;4.10;3.70;;;17.80;53.60;;;;;;4976538;28;20158;-69
2022/03/27 09:10:16;;;;;;;4.53;4.07;;;17.80;53.60;;;;;;4960002;28;20058;-69
2022/03/27 09:12:43;;;;;;;4.45;3.90;;;17.80;53.60;;;;;;4976591;28;20073;-69
2022/03/27 09:15:09;;;;;;;4.68;3.55;;;17.80;53.60;;;;;;4976482;28;20038;-69
2022/03/27 09:17:53;;;;;;;4.95;3.90;;;17.80;53.60;;;;;;4976527;28;20026;-69
2022/03/27 09:20:41;;;;;;;5.40;3.78;;;17.80;53.50;;;;;;4992327;28;20034;-69
2022/03/27 09:23:29;;;;;;;4.43;3.90;;;17.90;53.60;;;;;;4992155;28;20048;-69
2022/03/27 09:26:02;;;;;;;4.55;4.13;;;17.80;53.60;;;;;;4995922;28;20120;-69
2022/03/27 09:28:35;;;;;;;4.68;3.90;;;17.80;53.70;;;;;;5012480;28;20037;-69
2022/03/27 09:31:14;;;;;;;4.95;4.05;;;17.80;53.60;;;;;;5013306;28;20018;-69
2022/03/27 09:33:50;;;;;;;4.80;4.10;;;17.70;53.60;;;;;;5033887;28;20113;-69
2022/03/27 09:36:26;;;;;;;5.70;4.32;;;17.70;53.60;;;;;;5017034;28;20147;-69
2022/03/27 09:39:07;;;;;;;4.57;4.07;;;17.80;53.70;;;;;;5033680;28;20488;-69
2022/03/27 09:41:33;;;;;;;6.53;4.00;;;17.80;53.70;;;;;;5033258;28;20070;-69
2022/03/27 09:44:01;;;;;;;5.25;4.15;;;17.80;53.70;;;;;;5032307;28;20048;-69
2022/03/27 09:46:26;;;;;;;5.57;4.25;;;17.80;53.60;;;;;;5033399;28;20025;-69
2022/03/27 09:48:59;;;;;;;5.00;3.80;;;17.80;53.60;;;;;;5032294;28;20025;-69
2022/03/27 09:51:25;;;;;;;4.80;4.10;;;17.80;53.60;;;;;;5032240;28;20057;-69
2022/03/27 09:53:57;;;;;;;4.90;4.22;;;17.70;53.60;;;;;;5031993;28;20045;-69
2022/03/27 09:56:22;;;;;;;4.03;3.70;;;17.80;53.60;;;;;;5032021;28;20041;-69
2022/03/27 09:58:48;;;;;;;4.90;4.07;;;17.80;53.70;;;;;;5015576;28;20025;-69
2022/03/27 10:01:14;;;;;;;5.20;4.40;;;17.70;53.60;;;;;;5033148;28;20021;-69
2022/03/27 10:03:58;;;;;;;4.70;3.90;;;17.80;53.70;;;;;;5033354;28;20029;-69
2022/03/27 10:06:27;;;;;;;4.70;4.13;;;17.80;53.50;;;;;;5033014;28;20025;-69
2022/03/27 10:08:53;;;;;;;4.30;3.88;;;17.80;53.70;;;;;;5031723;28;20017;-69
2022/03/27 10:11:21;;;;;;;4.53;3.95;;;17.70;53.60;;;;;;5032963;28;20104;-69
2022/03/27 10:13:46;;;;;;;5.03;3.90;;;17.80;53.70;;;;;;5015588;28;20013;-69
2022/03/27 10:16:12;;;;;;;4.50;4.10;;;17.80;53.60;;;;;;5015401;28;20151;-69
2022/03/27 10:18:38;;;;;;;5.18;3.92;;;17.70;53.60;;;;;;5015382;28;20089;-69
2022/03/27 10:21:03;;;;;;;4.28;3.88;;;17.80;53.60;;;;;;5015221;28;20108;-69
2022/03/27 10:23:29;;;;;;;5.00;4.20;;;17.80;53.70;;;;;;5031215;28;20548;-69
2022/03/27 10:25:59;;;;;;;5.03;4.30;;;17.80;53.60;;;;;;5031739;28;20587;-69
2022/03/27 10:28:25;;;;;;;4.93;4.20;;;17.70;53.60;;;;;;5031518;28;20022;-69
2022/03/27 10:30:51;;;;;;;4.95;4.45;;;17.70;53.60;;;;;;5031645;28;20439;-69
2022/03/27 10:33:17;;;;;;;5.28;4.38;;;17.70;53.60;;;;;;5012177;28;20021;-69
2022/03/27 10:35:51;;;;;;;4.50;3.88;;;17.70;53.60;;;;;;5011835;28;20117;-69
2022/03/27 10:38:37;;;;;;;4.75;4.10;;;17.80;53.60;;;;;;5011537;28;20030;-69
2022/03/27 10:41:24;;;;;;;4.65;4.05;;;17.80;53.60;;;;;;5012943;28;20120;-69
2022/03/27 10:44:26;;;;;;;4.75;4.25;;;17.70;53.70;;;;;;5012748;28;20081;-69
2022/03/27 10:47:10;;;;;;;5.75;4.45;;;17.80;53.70;;;;;;5012099;28;20037;-69
2022/03/27 10:49:36;;;;;;;4.90;4.15;;;17.70;53.70;;;;;;5011563;28;20543;-69
2022/03/27 10:52:05;;;;;;;5.47;4.28;;;17.70;53.70;;;;;;5012606;28;20105;-69
2022/03/27 10:54:31;;;;;;;4.65;4.15;;;17.70;53.70;;;;;;5012816;28;20024;-69
2022/03/27 10:56:58;;;;;;;4.53;4.13;;;17.70;53.70;;;;;;5011291;28;20033;-69
2022/03/27 10:59:25;;;;;;;4.43;4.03;;;17.70;53.70;;;;;;5011490;28;20025;-69
2022/03/27 11:01:55;;;;;;;4.82;4.32;;;17.70;53.70;;;;;;5011582;28;20022;-69
2022/03/27 11:04:38;;;;;;;4.22;3.80;;;17.80;53.80;;;;;;5011354;28;20022;-69
2022/03/27 11:07:16;;;;;;;5.15;4.40;;;17.70;53.70;;;;;;5012181;28;20022;-69
2022/03/27 11:09:45;;;;;;;5.28;4.65;;;17.70;53.70;;;;;;5012595;28;20092;-69
2022/03/27 11:12:26;;;;;;;5.32;4.43;;;17.70;53.70;;;;;;5011223;28;20034;-69
2022/03/27 11:14:59;;;;;;;5.22;4.10;;;17.70;53.70;;;;;;5012573;28;20053;-69
2022/03/27 11:17:42;;;;;;;4.30;3.70;;;17.70;53.70;;;;;;5011351;28;20054;-69
2022/03/27 11:20:09;;;;;;;4.68;4.00;;;17.80;53.70;;;;;;5011271;28;20026;-69
2022/03/27 11:22:53;;;;;;;6.15;4.72;;;17.70;53.70;;;;;;5011146;28;20477;-69
2022/03/27 11:25:28;;;;;;;5.13;4.28;;;17.70;53.70;;;;;;5027711;28;20442;-69
2022/03/27 11:28:03;;;;;;;5.07;4.07;;;17.70;53.80;;;;;;5032264;28;20014;-69
2022/03/27 11:30:29;;;;;;;4.93;3.92;;;17.70;53.80;;;;;;5031892;28;20029;-69
2022/03/27 11:33:18;;;;;;;5.25;4.30;;;17.70;53.70;;;;;;5014521;28;20018;-69
2022/03/27 11:36:05;;;;;;;4.35;3.90;;;17.80;53.70;;;;;;5012301;28;20057;-69
2022/03/27 11:38:31;;;;;;;4.97;3.95;;;17.80;53.70;;;;;;5012228;28;20022;-69
2022/03/27 11:40:57;;;;;;;4.72;4.13;;;17.70;53.90;;;;;;5011226;28;20069;-69
2022/03/27 11:43:32;;;;;;;4.70;4.15;;;17.70;53.80;;;;;;5010882;28;20041;-69
2022/03/27 11:45:58;;;;;;;5.03;4.30;;;17.80;53.80;;;;;;5012345;28;20022;-69
2022/03/27 11:48:24;;;;;;;5.07;4.57;;;17.70;53.80;;;;;;5010971;28;20041;-69
2022/03/27 11:50:50;;;;;;;4.65;4.18;;;17.70;53.80;;;;;;5011976;28;20488;-69
2022/03/27 11:53:16;;;;;;;5.50;4.20;;;17.70;53.80;;;;;;5011265;28;20109;-69
2022/03/27 11:55:41;;;;;;;4.60;4.13;;;17.70;53.80;;;;;;5011039;28;20410;-69
2022/03/27 11:58:08;;;;;;;5.18;4.32;;;17.70;53.80;;;;;;5012757;28;20029;-69
2022/03/27 12:00:35;;;;;;;4.90;4.40;;;17.70;53.80;;;;;;5014655;28;20377;-69
2022/03/27 12:03:02;;;;;;;5.53;4.30;;;17.70;53.80;;;;;;5014609;28;20025;-69
2022/03/27 12:05:33;;;;;;;4.72;3.67;;;17.70;53.80;;;;;;5014160;28;20018;-69
2022/03/27 12:07:59;;;;;;;5.70;4.50;;;17.70;53.70;;;;;;5015737;28;20049;-69
2022/03/27 12:10:26;;;;;;;4.30;3.90;;;17.70;53.80;;;;;;5014252;28;20053;-69
2022/03/27 12:13:08;;;;;;;4.20;3.80;;;17.70;53.70;;;;;;5014586;28;20021;-69
2022/03/27 12:15:41;;;;;;;4.55;4.03;;;17.80;53.80;;;;;;5014248;28;20037;-69
2022/03/27 12:18:07;;;;;;;4.13;3.70;;;17.70;53.80;;;;;;5015459;28;20149;-69
2022/03/27 12:20:43;;;;;;;4.32;3.85;;;17.70;53.90;;;;;;5014036;28;20053;-69
2022/03/27 12:23:29;;;;;;;5.25;3.70;;;17.80;53.80;;;;;;5014304;28;20080;-69
2022/03/27 12:32:25;;;;;;;5.47;3.90;;;17.80;53.80;;;;;;5024130;28;20078;-69
2022/03/27 12:34:55;;;;;;;4.30;3.85;;;17.80;53.90;;;;;;5033573;28;20156;-69
2022/03/27 12:37:22;;;;;;;4.40;4.00;;;17.80;54.00;;;;;;5034915;28;20104;-69
2022/03/27 12:39:48;;;;;;;5.03;4.30;;;17.80;54.00;;;;;;5033791;28;20074;-69
2022/03/27 12:42:45;;;;;;;4.95;4.00;;;17.80;53.90;;;;;;5034510;28;20041;-69
2022/03/27 12:45:11;;;;;;;4.35;3.95;;;17.80;53.80;;;;;;5034917;28;20144;-69
2022/03/27 12:47:49;;;;;;;4.22;3.63;;;17.80;54.10;;;;;;5034481;28;20049;-69
2022/03/27 12:50:37;;;;;;;3.90;3.50;;;17.80;53.90;;;;;;5017561;28;20472;-69
2022/03/27 12:53:05;;;;;;;4.65;3.53;;;17.80;53.90;;;;;;5034553;28;20056;-69
2022/03/27 12:55:54;;;;;;;4.50;4.07;;;17.80;54.00;;;;;;5034557;28;20022;-69
2022/03/27 12:58:41;;;;;;;4.72;4.10;;;17.80;54.00;;;;;;5018153;28;20026;-69
2022/03/27 13:01:20;;;;;;;4.80;4.00;;;17.90;54.00;;;;;;5033228;28;20025;-69